SJLT weather

Milho Airport
Boa Vista, Roraima, Brazil

Public forecast

Using degrees Celsius for public forecast. Weather courtesy of forecast.io.

METAR (pilot weather report)

Closest report is Atlas Brasil Cantanhede Airport, 36.9 nm (68.3 km) SSW. Retrieved 2019/03/26 03:00 UTC (39 minutes ago):

SBBV 260300Z 08011KT CAVOK 30/18 Q1010

TAF (pilot weather forecast)

Closest forecast is Atlas Brasil Cantanhede Airport, 36.9 nm (68.3 km) SSW. Retrieved 2019/03/26 00:00 UTC (4 hours ago):

TAF SBBV 252200Z 2600/2624 08011KT CAVOK TN26/2609Z TX35/2617Z BECMG 2616/2618 SCT040 RMK PEU